sensor_id;sensor_type;location;lat;lon;timestamp;P1;durP1;ratioP1;P2;durP2;ratioP2
28772;SDS011;15925;51.222;5.678;2023-08-06T00:00:22;1.63;;;0.47;;
28772;SDS011;15925;51.222;5.678;2023-08-06T00:02:48;0.95;;;0.47;;
28772;SDS011;15925;51.222;5.678;2023-08-06T00:05:14;3.42;;;0.95;;
28772;SDS011;15925;51.222;5.678;2023-08-06T00:07:45;0.90;;;0.57;;
28772;SDS011;15925;51.222;5.678;2023-08-06T00:10:15;1.20;;;0.63;;
28772;SDS011;15925;51.222;5.678;2023-08-06T00:12:41;2.13;;;0.60;;
28772;SDS011;15925;51.222;5.678;2023-08-06T00:15:07;3.28;;;0.65;;
28772;SDS011;15925;51.222;5.678;2023-08-06T00:17:34;1.55;;;0.60;;
28772;SDS011;15925;51.222;5.678;2023-08-06T00:20:00;3.42;;;0.80;;
28772;SDS011;15925;51.222;5.678;2023-08-06T00:22:30;3.83;;;0.93;;
28772;SDS011;15925;51.222;5.678;2023-08-06T00:25:00;3.15;;;0.70;;
28772;SDS011;15925;51.222;5.678;2023-08-06T00:27:26;0.95;;;0.30;;
28772;SDS011;15925;51.222;5.678;2023-08-06T00:29:52;0.32;;;0.30;;
28772;SDS011;15925;51.222;5.678;2023-08-06T00:32:18;2.70;;;0.95;;
28772;SDS011;15925;51.222;5.678;2023-08-06T00:34:44;0.20;;;0.20;;
28772;SDS011;15925;51.222;5.678;2023-08-06T00:37:10;1.07;;;0.63;;
28772;SDS011;15925;51.222;5.678;2023-08-06T00:39:35;5.20;;;0.40;;
28772;SDS011;15925;51.222;5.678;2023-08-06T00:42:02;14.70;;;0.77;;
28772;SDS011;15925;51.222;5.678;2023-08-06T00:44:28;1.17;;;0.50;;
28772;SDS011;15925;51.222;5.678;2023-08-06T00:46:54;4.35;;;0.60;;
28772;SDS011;15925;51.222;5.678;2023-08-06T00:49:20;3.72;;;0.65;;
28772;SDS011;15925;51.222;5.678;2023-08-06T00:51:46;9.10;;;0.97;;
28772;SDS011;15925;51.222;5.678;2023-08-06T00:54:12;1.38;;;0.60;;
28772;SDS011;15925;51.222;5.678;2023-08-06T00:56:39;0.32;;;0.30;;
28772;SDS011;15925;51.222;5.678;2023-08-06T00:59:06;0.47;;;0.32;;
28772;SDS011;15925;51.222;5.678;2023-08-06T01:01:32;1.60;;;0.60;;
28772;SDS011;15925;51.222;5.678;2023-08-06T01:03:58;6.25;;;0.93;;
28772;SDS011;15925;51.222;5.678;2023-08-06T01:06:32;0.93;;;0.40;;
28772;SDS011;15925;51.222;5.678;2023-08-06T01:14:48;1.98;;;0.55;;
28772;SDS011;15925;51.222;5.678;2023-08-06T01:17:14;0.95;;;0.40;;
28772;SDS011;15925;51.222;5.678;2023-08-06T01:19:40;5.72;;;0.63;;
28772;SDS011;15925;51.222;5.678;2023-08-06T01:22:06;2.27;;;0.77;;
28772;SDS011;15925;51.222;5.678;2023-08-06T01:24:32;0.53;;;0.40;;
28772;SDS011;15925;51.222;5.678;2023-08-06T01:27:01;0.70;;;0.40;;
28772;SDS011;15925;51.222;5.678;2023-08-06T01:29:34;0.95;;;0.43;;
28772;SDS011;15925;51.222;5.678;2023-08-06T01:32:02;0.52;;;0.32;;
28772;SDS011;15925;51.222;5.678;2023-08-06T01:34:31;1.40;;;0.75;;
28772;SDS011;15925;51.222;5.678;2023-08-06T01:36:59;0.38;;;0.30;;
28772;SDS011;15925;51.222;5.678;2023-08-06T01:39:26;0.93;;;0.50;;
28772;SDS011;15925;51.222;5.678;2023-08-06T01:41:52;0.95;;;0.47;;
28772;SDS011;15925;51.222;5.678;2023-08-06T01:44:17;4.70;;;1.20;;
28772;SDS011;15925;51.222;5.678;2023-08-06T01:46:43;0.98;;;0.70;;
28772;SDS011;15925;51.222;5.678;2023-08-06T01:49:09;3.13;;;1.52;;
28772;SDS011;15925;51.222;5.678;2023-08-06T01:51:35;1.20;;;0.40;;
28772;SDS011;15925;51.222;5.678;2023-08-06T01:54:01;1.60;;;0.40;;
28772;SDS011;15925;51.222;5.678;2023-08-06T01:56:27;6.25;;;0.63;;
28772;SDS011;15925;51.222;5.678;2023-08-06T01:58:52;3.77;;;0.60;;
28772;SDS011;15925;51.222;5.678;2023-08-06T02:01:18;14.03;;;1.37;;
28772;SDS011;15925;51.222;5.678;2023-08-06T02:03:44;1.97;;;0.40;;
28772;SDS011;15925;51.222;5.678;2023-08-06T02:06:10;0.43;;;0.40;;
28772;SDS011;15925;51.222;5.678;2023-08-06T02:08:36;0.90;;;0.30;;
28772;SDS011;15925;51.222;5.678;2023-08-06T02:11:02;0.98;;;0.60;;
28772;SDS011;15925;51.222;5.678;2023-08-06T02:13:29;1.70;;;0.57;;
28772;SDS011;15925;51.222;5.678;2023-08-06T02:15:55;5.60;;;0.67;;
28772;SDS011;15925;51.222;5.678;2023-08-06T02:18:21;3.20;;;0.60;;
28772;SDS011;15925;51.222;5.678;2023-08-06T02:20:56;1.03;;;0.67;;
28772;SDS011;15925;51.222;5.678;2023-08-06T02:23:23;0.65;;;0.60;;
28772;SDS011;15925;51.222;5.678;2023-08-06T02:25:53;12.13;;;0.97;;
28772;SDS011;15925;51.222;5.678;2023-08-06T02:28:26;3.17;;;1.00;;
28772;SDS011;15925;51.222;5.678;2023-08-06T02:30:53;3.45;;;0.70;;
28772;SDS011;15925;51.222;5.678;2023-08-06T02:33:18;1.47;;;0.50;;
28772;SDS011;15925;51.222;5.678;2023-08-06T02:35:44;0.97;;;0.77;;
28772;SDS011;15925;51.222;5.678;2023-08-06T02:38:10;3.40;;;0.67;;
28772;SDS011;15925;51.222;5.678;2023-08-06T02:40:35;2.57;;;0.70;;
28772;SDS011;15925;51.222;5.678;2023-08-06T02:43:01;2.25;;;0.70;;
28772;SDS011;15925;51.222;5.678;2023-08-06T02:45:28;1.27;;;0.43;;
28772;SDS011;15925;51.222;5.678;2023-08-06T02:47:54;2.00;;;0.57;;
28772;SDS011;15925;51.222;5.678;2023-08-06T02:50:20;0.97;;;0.50;;
28772;SDS011;15925;51.222;5.678;2023-08-06T02:52:46;3.20;;;0.70;;
28772;SDS011;15925;51.222;5.678;2023-08-06T02:55:11;0.57;;;0.37;;
28772;SDS011;15925;51.222;5.678;2023-08-06T02:57:42;6.32;;;0.85;;
28772;SDS011;15925;51.222;5.678;2023-08-06T03:00:08;2.23;;;0.30;;
28772;SDS011;15925;51.222;5.678;2023-08-06T03:02:34;2.30;;;0.40;;
28772;SDS011;15925;51.222;5.678;2023-08-06T03:05:20;2.72;;;0.43;;
28772;SDS011;15925;51.222;5.678;2023-08-06T03:10:18;0.20;;;0.10;;
28772;SDS011;15925;51.222;5.678;2023-08-06T03:12:45;2.78;;;0.57;;
28772;SDS011;15925;51.222;5.678;2023-08-06T03:15:11;7.43;;;0.57;;
28772;SDS011;15925;51.222;5.678;2023-08-06T03:17:40;0.63;;;0.32;;
28772;SDS011;15925;51.222;5.678;2023-08-06T03:20:07;4.13;;;1.05;;
28772;SDS011;15925;51.222;5.678;2023-08-06T03:22:34;2.53;;;0.95;;
28772;SDS011;15925;51.222;5.678;2023-08-06T03:25:00;1.88;;;0.70;;
28772;SDS011;15925;51.222;5.678;2023-08-06T03:27:27;1.13;;;0.50;;
28772;SDS011;15925;51.222;5.678;2023-08-06T03:29:52;2.63;;;0.90;;
28772;SDS011;15925;51.222;5.678;2023-08-06T03:32:21;1.55;;;0.40;;
28772;SDS011;15925;51.222;5.678;2023-08-06T03:34:47;2.08;;;0.50;;
28772;SDS011;15925;51.222;5.678;2023-08-06T03:37:15;2.08;;;0.50;;
28772;SDS011;15925;51.222;5.678;2023-08-06T03:39:40;6.80;;;0.87;;
28772;SDS011;15925;51.222;5.678;2023-08-06T03:42:07;0.75;;;0.30;;
28772;SDS011;15925;51.222;5.678;2023-08-06T03:44:33;0.57;;;0.50;;
28772;SDS011;15925;51.222;5.678;2023-08-06T03:46:59;1.08;;;0.57;;
28772;SDS011;15925;51.222;5.678;2023-08-06T03:49:25;0.68;;;0.50;;
28772;SDS011;15925;51.222;5.678;2023-08-06T03:51:51;1.17;;;0.52;;
28772;SDS011;15925;51.222;5.678;2023-08-06T03:54:16;1.10;;;0.47;;
28772;SDS011;15925;51.222;5.678;2023-08-06T03:56:42;0.40;;;0.40;;
28772;SDS011;15925;51.222;5.678;2023-08-06T03:59:08;3.10;;;0.70;;
28772;SDS011;15925;51.222;5.678;2023-08-06T04:01:34;0.57;;;0.57;;
28772;SDS011;15925;51.222;5.678;2023-08-06T04:03:59;1.42;;;0.60;;
28772;SDS011;15925;51.222;5.678;2023-08-06T04:06:25;0.87;;;0.43;;
28772;SDS011;15925;51.222;5.678;2023-08-06T04:08:51;0.63;;;0.30;;
28772;SDS011;15925;51.222;5.678;2023-08-06T04:11:17;0.30;;;0.30;;
28772;SDS011;15925;51.222;5.678;2023-08-06T04:13:43;1.67;;;0.70;;
28772;SDS011;15925;51.222;5.678;2023-08-06T04:16:09;1.55;;;0.75;;
28772;SDS011;15925;51.222;5.678;2023-08-06T04:18:35;0.63;;;0.45;;
28772;SDS011;15925;51.222;5.678;2023-08-06T04:21:01;0.70;;;0.50;;
28772;SDS011;15925;51.222;5.678;2023-08-06T04:23:27;0.77;;;0.40;;
28772;SDS011;15925;51.222;5.678;2023-08-06T04:25:58;0.65;;;0.47;;
28772;SDS011;15925;51.222;5.678;2023-08-06T04:28:27;0.63;;;0.40;;
28772;SDS011;15925;51.222;5.678;2023-08-06T04:30:53;1.08;;;0.57;;
28772;SDS011;15925;51.222;5.678;2023-08-06T04:33:22;0.63;;;0.40;;
28772;SDS011;15925;51.222;5.678;2023-08-06T04:35:53;0.75;;;0.30;;
28772;SDS011;15925;51.222;5.678;2023-08-06T04:38:25;0.10;;;0.05;;
28772;SDS011;15925;51.222;5.678;2023-08-06T04:40:52;0.65;;;0.30;;
28772;SDS011;15925;51.222;5.678;2023-08-06T04:43:19;0.30;;;0.30;;
28772;SDS011;15925;51.222;5.678;2023-08-06T04:45:46;1.30;;;0.68;;
28772;SDS011;15925;51.222;5.678;2023-08-06T04:48:13;1.20;;;0.40;;
28772;SDS011;15925;51.222;5.678;2023-08-06T04:50:42;0.98;;;0.28;;
28772;SDS011;15925;51.222;5.678;2023-08-06T04:53:09;5.03;;;0.20;;
28772;SDS011;15925;51.222;5.678;2023-08-06T04:55:35;2.70;;;0.57;;
28772;SDS011;15925;51.222;5.678;2023-08-06T04:58:00;0.43;;;0.30;;
28772;SDS011;15925;51.222;5.678;2023-08-06T05:00:26;0.43;;;0.40;;
28772;SDS011;15925;51.222;5.678;2023-08-06T05:02:52;4.43;;;0.80;;
28772;SDS011;15925;51.222;5.678;2023-08-06T05:05:18;0.30;;;0.30;;
28772;SDS011;15925;51.222;5.678;2023-08-06T05:07:45;0.10;;;0.10;;
28772;SDS011;15925;51.222;5.678;2023-08-06T05:10:13;0.47;;;0.17;;
28772;SDS011;15925;51.222;5.678;2023-08-06T05:12:39;0.30;;;0.30;;
28772;SDS011;15925;51.222;5.678;2023-08-06T05:15:04;0.37;;;0.33;;
28772;SDS011;15925;51.222;5.678;2023-08-06T05:17:30;1.45;;;0.60;;
28772;SDS011;15925;51.222;5.678;2023-08-06T05:19:56;1.50;;;0.40;;
28772;SDS011;15925;51.222;5.678;2023-08-06T05:22:22;0.47;;;0.37;;
28772;SDS011;15925;51.222;5.678;2023-08-06T05:24:48;0.60;;;0.37;;
28772;SDS011;15925;51.222;5.678;2023-08-06T05:27:14;0.90;;;0.40;;
28772;SDS011;15925;51.222;5.678;2023-08-06T05:29:40;0.97;;;0.40;;
28772;SDS011;15925;51.222;5.678;2023-08-06T05:32:05;1.50;;;0.53;;
28772;SDS011;15925;51.222;5.678;2023-08-06T05:34:31;0.70;;;0.50;;
28772;SDS011;15925;51.222;5.678;2023-08-06T05:36:57;0.57;;;0.50;;
28772;SDS011;15925;51.222;5.678;2023-08-06T05:39:23;1.73;;;0.67;;
28772;SDS011;15925;51.222;5.678;2023-08-06T05:41:49;1.37;;;0.53;;
28772;SDS011;15925;51.222;5.678;2023-08-06T05:44:15;0.80;;;0.55;;
28772;SDS011;15925;51.222;5.678;2023-08-06T05:46:41;3.33;;;1.08;;
28772;SDS011;15925;51.222;5.678;2023-08-06T05:49:07;0.63;;;0.50;;
28772;SDS011;15925;51.222;5.678;2023-08-06T05:51:32;0.40;;;0.40;;
28772;SDS011;15925;51.222;5.678;2023-08-06T05:53:58;0.40;;;0.30;;
28772;SDS011;15925;51.222;5.678;2023-08-06T05:56:24;0.30;;;0.30;;
28772;SDS011;15925;51.222;5.678;2023-08-06T05:58:50;0.50;;;0.30;;
28772;SDS011;15925;51.222;5.678;2023-08-06T06:01:18;1.00;;;0.45;;
28772;SDS011;15925;51.222;5.678;2023-08-06T06:03:44;3.15;;;0.60;;
28772;SDS011;15925;51.222;5.678;2023-08-06T06:06:09;3.87;;;0.77;;
28772;SDS011;15925;51.222;5.678;2023-08-06T06:08:35;0.70;;;0.57;;
28772;SDS011;15925;51.222;5.678;2023-08-06T06:11:01;3.10;;;0.83;;
28772;SDS011;15925;51.222;5.678;2023-08-06T06:13:27;1.13;;;0.57;;
28772;SDS011;15925;51.222;5.678;2023-08-06T06:15:55;0.47;;;0.43;;
28772;SDS011;15925;51.222;5.678;2023-08-06T06:18:21;0.90;;;0.70;;
28772;SDS011;15925;51.222;5.678;2023-08-06T06:20:47;0.57;;;0.50;;
28772;SDS011;15925;51.222;5.678;2023-08-06T06:23:13;1.67;;;0.87;;
28772;SDS011;15925;51.222;5.678;2023-08-06T06:25:43;5.30;;;0.70;;
28772;SDS011;15925;51.222;5.678;2023-08-06T06:28:09;1.38;;;0.88;;
28772;SDS011;15925;51.222;5.678;2023-08-06T06:30:34;2.97;;;0.80;;
28772;SDS011;15925;51.222;5.678;2023-08-06T06:33:01;1.80;;;1.13;;
28772;SDS011;15925;51.222;5.678;2023-08-06T06:35:26;1.90;;;1.10;;
28772;SDS011;15925;51.222;5.678;2023-08-06T06:37:52;2.97;;;1.13;;
28772;SDS011;15925;51.222;5.678;2023-08-06T06:40:19;3.53;;;1.40;;
28772;SDS011;15925;51.222;5.678;2023-08-06T06:42:45;2.13;;;1.27;;
28772;SDS011;15925;51.222;5.678;2023-08-06T06:45:11;2.38;;;1.60;;
28772;SDS011;15925;51.222;5.678;2023-08-06T06:47:37;2.27;;;1.37;;
28772;SDS011;15925;51.222;5.678;2023-08-06T06:50:03;1.97;;;1.43;;
28772;SDS011;15925;51.222;5.678;2023-08-06T06:52:29;5.40;;;1.23;;
28772;SDS011;15925;51.222;5.678;2023-08-06T06:54:55;2.20;;;1.30;;
28772;SDS011;15925;51.222;5.678;2023-08-06T06:57:21;6.70;;;1.40;;
28772;SDS011;15925;51.222;5.678;2023-08-06T06:59:46;6.73;;;2.00;;
28772;SDS011;15925;51.222;5.678;2023-08-06T07:02:12;5.33;;;1.73;;
28772;SDS011;15925;51.222;5.678;2023-08-06T07:04:38;2.43;;;1.50;;
28772;SDS011;15925;51.222;5.678;2023-08-06T07:07:04;9.10;;;2.40;;
28772;SDS011;15925;51.222;5.678;2023-08-06T07:09:29;6.00;;;1.67;;
28772;SDS011;15925;51.222;5.678;2023-08-06T07:11:55;3.00;;;1.57;;
28772;SDS011;15925;51.222;5.678;2023-08-06T07:14:21;3.30;;;1.70;;
28772;SDS011;15925;51.222;5.678;2023-08-06T07:16:48;4.43;;;2.05;;
28772;SDS011;15925;51.222;5.678;2023-08-06T07:19:13;5.30;;;1.37;;
28772;SDS011;15925;51.222;5.678;2023-08-06T07:21:39;9.00;;;2.03;;
28772;SDS011;15925;51.222;5.678;2023-08-06T07:24:05;5.63;;;2.60;;
28772;SDS011;15925;51.222;5.678;2023-08-06T07:26:31;3.42;;;1.92;;
28772;SDS011;15925;51.222;5.678;2023-08-06T07:28:57;0.60;;;0.35;;
28772;SDS011;15925;51.222;5.678;2023-08-06T07:31:23;2.67;;;0.83;;
28772;SDS011;15925;51.222;5.678;2023-08-06T07:33:49;1.50;;;0.43;;
28772;SDS011;15925;51.222;5.678;2023-08-06T07:36:15;0.70;;;0.40;;
28772;SDS011;15925;51.222;5.678;2023-08-06T07:38:40;1.60;;;0.60;;
28772;SDS011;15925;51.222;5.678;2023-08-06T07:41:06;0.52;;;0.50;;
28772;SDS011;15925;51.222;5.678;2023-08-06T07:43:33;1.25;;;0.65;;
28772;SDS011;15925;51.222;5.678;2023-08-06T07:45:59;1.53;;;0.70;;
28772;SDS011;15925;51.222;5.678;2023-08-06T07:48:28;1.00;;;0.50;;
28772;SDS011;15925;51.222;5.678;2023-08-06T07:50:55;1.52;;;0.88;;
28772;SDS011;15925;51.222;5.678;2023-08-06T07:53:21;1.15;;;0.70;;
28772;SDS011;15925;51.222;5.678;2023-08-06T07:55:50;2.13;;;0.70;;
28772;SDS011;15925;51.222;5.678;2023-08-06T07:58:17;3.42;;;0.43;;
28772;SDS011;15925;51.222;5.678;2023-08-06T08:00:44;0.73;;;0.32;;
28772;SDS011;15925;51.222;5.678;2023-08-06T08:03:19;1.42;;;0.95;;
28772;SDS011;15925;51.222;5.678;2023-08-06T08:05:45;0.30;;;0.30;;
28772;SDS011;15925;51.222;5.678;2023-08-06T08:08:11;2.75;;;0.95;;
28772;SDS011;15925;51.222;5.678;2023-08-06T08:10:37;1.65;;;0.98;;
28772;SDS011;15925;51.222;5.678;2023-08-06T08:13:03;2.35;;;1.70;;
28772;SDS011;15925;51.222;5.678;2023-08-06T08:15:30;1.20;;;0.80;;
28772;SDS011;15925;51.222;5.678;2023-08-06T08:17:57;2.00;;;1.10;;
28772;SDS011;15925;51.222;5.678;2023-08-06T08:22:49;5.88;;;1.10;;
28772;SDS011;15925;51.222;5.678;2023-08-06T08:25:15;2.77;;;0.80;;
28772;SDS011;15925;51.222;5.678;2023-08-06T08:27:41;1.83;;;0.80;;
28772;SDS011;15925;51.222;5.678;2023-08-06T08:30:07;1.52;;;0.73;;
28772;SDS011;15925;51.222;5.678;2023-08-06T08:32:33;1.83;;;0.88;;
28772;SDS011;15925;51.222;5.678;2023-08-06T08:34:59;1.43;;;0.83;;
28772;SDS011;15925;51.222;5.678;2023-08-06T08:37:25;7.15;;;1.23;;
28772;SDS011;15925;51.222;5.678;2023-08-06T08:39:51;1.70;;;0.90;;
28772;SDS011;15925;51.222;5.678;2023-08-06T08:42:17;3.53;;;1.08;;
28772;SDS011;15925;51.222;5.678;2023-08-06T08:44:43;1.38;;;0.75;;
28772;SDS011;15925;51.222;5.678;2023-08-06T08:47:10;4.00;;;1.23;;
28772;SDS011;15925;51.222;5.678;2023-08-06T08:52:03;4.03;;;0.70;;
28772;SDS011;15925;51.222;5.678;2023-08-06T08:54:33;2.05;;;0.80;;
28772;SDS011;15925;51.222;5.678;2023-08-06T08:56:59;12.15;;;1.80;;
28772;SDS011;15925;51.222;5.678;2023-08-06T08:59:25;2.35;;;1.10;;
28772;SDS011;15925;51.222;5.678;2023-08-06T09:01:51;2.42;;;1.50;;
28772;SDS011;15925;51.222;5.678;2023-08-06T09:04:18;5.72;;;1.70;;
28772;SDS011;15925;51.222;5.678;2023-08-06T09:06:50;8.30;;;1.88;;
28772;SDS011;15925;51.222;5.678;2023-08-06T09:09:20;9.23;;;1.02;;
28772;SDS011;15925;51.222;5.678;2023-08-06T09:11:51;4.07;;;1.40;;
28772;SDS011;15925;51.222;5.678;2023-08-06T09:14:17;4.65;;;0.70;;
28772;SDS011;15925;51.222;5.678;2023-08-06T09:16:43;4.07;;;1.27;;
28772;SDS011;15925;51.222;5.678;2023-08-06T09:19:10;10.30;;;1.27;;
28772;SDS011;15925;51.222;5.678;2023-08-06T09:21:40;4.97;;;1.50;;
28772;SDS011;15925;51.222;5.678;2023-08-06T09:24:10;2.67;;;0.85;;
28772;SDS011;15925;51.222;5.678;2023-08-06T09:26:40;5.18;;;1.40;;
28772;SDS011;15925;51.222;5.678;2023-08-06T09:29:07;9.30;;;1.25;;
28772;SDS011;15925;51.222;5.678;2023-08-06T09:31:46;13.02;;;0.82;;
28772;SDS011;15925;51.222;5.678;2023-08-06T09:34:16;10.93;;;0.82;;
28772;SDS011;15925;51.222;5.678;2023-08-06T09:36:50;9.05;;;0.95;;
28772;SDS011;15925;51.222;5.678;2023-08-06T09:39:17;4.80;;;1.10;;
28772;SDS011;15925;51.222;5.678;2023-08-06T09:41:44;1.27;;;0.60;;
28772;SDS011;15925;51.222;5.678;2023-08-06T09:44:20;5.03;;;0.60;;
28772;SDS011;15925;51.222;5.678;2023-08-06T09:46:48;25.05;;;1.05;;
28772;SDS011;15925;51.222;5.678;2023-08-06T09:49:19;6.07;;;0.63;;
28772;SDS011;15925;51.222;5.678;2023-08-06T09:51:47;3.45;;;0.50;;
28772;SDS011;15925;51.222;5.678;2023-08-06T09:54:16;4.07;;;0.90;;
28772;SDS011;15925;51.222;5.678;2023-08-06T09:56:44;2.88;;;1.27;;
28772;SDS011;15925;51.222;5.678;2023-08-06T09:59:10;7.20;;;1.27;;
28772;SDS011;15925;51.222;5.678;2023-08-06T10:01:38;5.03;;;0.73;;
28772;SDS011;15925;51.222;5.678;2023-08-06T10:04:05;5.23;;;0.80;;
28772;SDS011;15925;51.222;5.678;2023-08-06T10:06:36;3.15;;;1.10;;
28772;SDS011;15925;51.222;5.678;2023-08-06T10:09:03;3.28;;;1.10;;
28772;SDS011;15925;51.222;5.678;2023-08-06T10:11:29;4.43;;;1.10;;
28772;SDS011;15925;51.222;5.678;2023-08-06T10:14:10;16.10;;;1.15;;
28772;SDS011;15925;51.222;5.678;2023-08-06T10:16:38;5.68;;;1.23;;
28772;SDS011;15925;51.222;5.678;2023-08-06T10:19:06;4.65;;;0.93;;
28772;SDS011;15925;51.222;5.678;2023-08-06T10:21:34;1.65;;;0.70;;
28772;SDS011;15925;51.222;5.678;2023-08-06T10:24:00;7.90;;;1.67;;
28772;SDS011;15925;51.222;5.678;2023-08-06T10:26:29;4.05;;;1.63;;
28772;SDS011;15925;51.222;5.678;2023-08-06T10:28:55;0.68;;;0.63;;
28772;SDS011;15925;51.222;5.678;2023-08-06T10:34:19;3.63;;;0.70;;
28772;SDS011;15925;51.222;5.678;2023-08-06T10:36:45;10.37;;;0.90;;
28772;SDS011;15925;51.222;5.678;2023-08-06T10:39:13;2.50;;;0.77;;
28772;SDS011;15925;51.222;5.678;2023-08-06T10:41:40;2.30;;;0.75;;
28772;SDS011;15925;51.222;5.678;2023-08-06T10:44:11;8.18;;;0.93;;
28772;SDS011;15925;51.222;5.678;2023-08-06T10:46:37;2.45;;;0.82;;
28772;SDS011;15925;51.222;5.678;2023-08-06T10:49:03;6.45;;;0.98;;
28772;SDS011;15925;51.222;5.678;2023-08-06T10:51:30;2.53;;;1.05;;
28772;SDS011;15925;51.222;5.678;2023-08-06T10:53:56;5.22;;;0.70;;
28772;SDS011;15925;51.222;5.678;2023-08-06T10:56:24;2.10;;;0.77;;
28772;SDS011;15925;51.222;5.678;2023-08-06T10:58:53;2.75;;;0.95;;
28772;SDS011;15925;51.222;5.678;2023-08-06T11:01:21;2.22;;;0.95;;
28772;SDS011;15925;51.222;5.678;2023-08-06T11:03:48;3.65;;;1.10;;
28772;SDS011;15925;51.222;5.678;2023-08-06T11:06:22;0.63;;;0.35;;
28772;SDS011;15925;51.222;5.678;2023-08-06T11:08:49;7.22;;;1.08;;
28772;SDS011;15925;51.222;5.678;2023-08-06T11:11:16;4.07;;;1.83;;
28772;SDS011;15925;51.222;5.678;2023-08-06T11:13:46;4.88;;;1.00;;
28772;SDS011;15925;51.222;5.678;2023-08-06T11:16:13;4.55;;;1.38;;
28772;SDS011;15925;51.222;5.678;2023-08-06T11:18:40;4.70;;;0.85;;
28772;SDS011;15925;51.222;5.678;2023-08-06T11:21:09;4.97;;;1.67;;
28772;SDS011;15925;51.222;5.678;2023-08-06T11:23:36;2.25;;;1.10;;
28772;SDS011;15925;51.222;5.678;2023-08-06T11:26:03;11.25;;;1.40;;
28772;SDS011;15925;51.222;5.678;2023-08-06T11:28:29;10.90;;;1.33;;
28772;SDS011;15925;51.222;5.678;2023-08-06T11:30:55;3.85;;;1.10;;
28772;SDS011;15925;51.222;5.678;2023-08-06T11:33:25;5.22;;;1.52;;
28772;SDS011;15925;51.222;5.678;2023-08-06T11:35:54;11.73;;;1.65;;
28772;SDS011;15925;51.222;5.678;2023-08-06T11:38:22;2.25;;;1.17;;
28772;SDS011;15925;51.222;5.678;2023-08-06T11:40:53;3.20;;;1.10;;
28772;SDS011;15925;51.222;5.678;2023-08-06T11:43:20;1.40;;;0.85;;
28772;SDS011;15925;51.222;5.678;2023-08-06T11:45:47;12.68;;;1.33;;
28772;SDS011;15925;51.222;5.678;2023-08-06T11:48:14;4.45;;;1.27;;
28772;SDS011;15925;51.222;5.678;2023-08-06T11:50:39;3.88;;;1.30;;
28772;SDS011;15925;51.222;5.678;2023-08-06T11:53:05;7.43;;;2.20;;
28772;SDS011;15925;51.222;5.678;2023-08-06T11:55:32;5.40;;;2.10;;
28772;SDS011;15925;51.222;5.678;2023-08-06T11:57:58;12.90;;;2.15;;
28772;SDS011;15925;51.222;5.678;2023-08-06T12:00:28;3.67;;;1.50;;
28772;SDS011;15925;51.222;5.678;2023-08-06T12:02:54;2.50;;;1.05;;
28772;SDS011;15925;51.222;5.678;2023-08-06T12:07:50;3.72;;;1.20;;
28772;SDS011;15925;51.222;5.678;2023-08-06T12:10:18;10.77;;;1.27;;
28772;SDS011;15925;51.222;5.678;2023-08-06T12:12:45;1.90;;;1.00;;
28772;SDS011;15925;51.222;5.678;2023-08-06T12:15:12;1.42;;;0.80;;
28772;SDS011;15925;51.222;5.678;2023-08-06T12:17:39;5.35;;;0.85;;
28772;SDS011;15925;51.222;5.678;2023-08-06T12:20:06;3.88;;;0.93;;
28772;SDS011;15925;51.222;5.678;2023-08-06T12:22:33;8.07;;;1.10;;
28772;SDS011;15925;51.222;5.678;2023-08-06T12:25:06;2.25;;;0.60;;
28772;SDS011;15925;51.222;5.678;2023-08-06T12:27:36;8.70;;;1.35;;
28772;SDS011;15925;51.222;5.678;2023-08-06T12:30:03;3.90;;;0.50;;
28772;SDS011;15925;51.222;5.678;2023-08-06T12:34:55;8.00;;;0.75;;
28772;SDS011;15925;51.222;5.678;2023-08-06T12:37:21;4.40;;;0.33;;
28772;SDS011;15925;51.222;5.678;2023-08-06T12:42:14;0.80;;;0.40;;
28772;SDS011;15925;51.222;5.678;2023-08-06T12:44:39;2.58;;;0.50;;
28772;SDS011;15925;51.222;5.678;2023-08-06T12:47:06;2.97;;;0.20;;
28772;SDS011;15925;51.222;5.678;2023-08-06T12:49:32;0.22;;;0.22;;
28772;SDS011;15925;51.222;5.678;2023-08-06T12:51:59;2.90;;;0.50;;
28772;SDS011;15925;51.222;5.678;2023-08-06T12:54:30;10.75;;;1.13;;
28772;SDS011;15925;51.222;5.678;2023-08-06T12:57:01;3.42;;;0.35;;
28772;SDS011;15925;51.222;5.678;2023-08-06T12:59:27;10.10;;;0.70;;
28772;SDS011;15925;51.222;5.678;2023-08-06T13:01:53;2.63;;;0.73;;
28772;SDS011;15925;51.222;5.678;2023-08-06T13:04:19;0.30;;;0.30;;
28772;SDS011;15925;51.222;5.678;2023-08-06T13:06:45;3.88;;;0.75;;
28772;SDS011;15925;51.222;5.678;2023-08-06T13:09:10;7.47;;;0.75;;
28772;SDS011;15925;51.222;5.678;2023-08-06T13:11:37;2.15;;;0.50;;
28772;SDS011;15925;51.222;5.678;2023-08-06T13:14:04;0.90;;;0.40;;
28772;SDS011;15925;51.222;5.678;2023-08-06T13:16:32;2.00;;;0.82;;
28772;SDS011;15925;51.222;5.678;2023-08-06T13:18:58;7.07;;;1.23;;
28772;SDS011;15925;51.222;5.678;2023-08-06T13:21:24;12.30;;;1.67;;
28772;SDS011;15925;51.222;5.678;2023-08-06T13:23:56;1.05;;;0.82;;
28772;SDS011;15925;51.222;5.678;2023-08-06T13:26:21;2.53;;;0.70;;
28772;SDS011;15925;51.222;5.678;2023-08-06T13:28:47;2.55;;;0.70;;
28772;SDS011;15925;51.222;5.678;2023-08-06T13:31:14;4.95;;;0.85;;
28772;SDS011;15925;51.222;5.678;2023-08-06T13:33:40;0.55;;;0.40;;
28772;SDS011;15925;51.222;5.678;2023-08-06T13:36:07;8.13;;;0.50;;
28772;SDS011;15925;51.222;5.678;2023-08-06T13:38:33;16.83;;;0.93;;
28772;SDS011;15925;51.222;5.678;2023-08-06T13:40:58;1.00;;;0.70;;
28772;SDS011;15925;51.222;5.678;2023-08-06T13:43:24;1.07;;;0.23;;
28772;SDS011;15925;51.222;5.678;2023-08-06T13:45:50;1.70;;;0.30;;
28772;SDS011;15925;51.222;5.678;2023-08-06T13:48:16;7.13;;;0.63;;
28772;SDS011;15925;51.222;5.678;2023-08-06T13:50:41;4.30;;;0.50;;
28772;SDS011;15925;51.222;5.678;2023-08-06T13:53:07;4.97;;;0.93;;
28772;SDS011;15925;51.222;5.678;2023-08-06T13:55:33;2.90;;;0.60;;
28772;SDS011;15925;51.222;5.678;2023-08-06T13:57:59;3.25;;;0.55;;
28772;SDS011;15925;51.222;5.678;2023-08-06T14:00:25;0.30;;;0.20;;
28772;SDS011;15925;51.222;5.678;2023-08-06T14:02:50;3.20;;;0.40;;
28772;SDS011;15925;51.222;5.678;2023-08-06T14:05:16;0.30;;;0.30;;
28772;SDS011;15925;51.222;5.678;2023-08-06T14:07:42;5.13;;;0.40;;
28772;SDS011;15925;51.222;5.678;2023-08-06T14:10:08;25.97;;;1.00;;
28772;SDS011;15925;51.222;5.678;2023-08-06T14:12:34;1.75;;;0.50;;
28772;SDS011;15925;51.222;5.678;2023-08-06T14:15:00;1.40;;;0.45;;
28772;SDS011;15925;51.222;5.678;2023-08-06T14:17:28;4.78;;;1.30;;
28772;SDS011;15925;51.222;5.678;2023-08-06T14:19:54;2.25;;;0.88;;
28772;SDS011;15925;51.222;5.678;2023-08-06T14:22:20;0.20;;;0.20;;
28772;SDS011;15925;51.222;5.678;2023-08-06T14:24:46;4.07;;;0.30;;
28772;SDS011;15925;51.222;5.678;2023-08-06T14:27:12;4.50;;;1.23;;
28772;SDS011;15925;51.222;5.678;2023-08-06T14:29:38;5.00;;;0.73;;
28772;SDS011;15925;51.222;5.678;2023-08-06T14:32:04;8.23;;;0.53;;
28772;SDS011;15925;51.222;5.678;2023-08-06T14:34:30;7.60;;;0.80;;
28772;SDS011;15925;51.222;5.678;2023-08-06T14:36:56;2.17;;;0.35;;
28772;SDS011;15925;51.222;5.678;2023-08-06T14:39:22;1.30;;;0.40;;
28772;SDS011;15925;51.222;5.678;2023-08-06T14:41:47;3.90;;;1.13;;
28772;SDS011;15925;51.222;5.678;2023-08-06T14:44:13;8.02;;;0.98;;
28772;SDS011;15925;51.222;5.678;2023-08-06T14:46:39;3.33;;;0.83;;
28772;SDS011;15925;51.222;5.678;2023-08-06T14:49:05;2.13;;;0.73;;
28772;SDS011;15925;51.222;5.678;2023-08-06T14:51:31;1.90;;;0.47;;
28772;SDS011;15925;51.222;5.678;2023-08-06T14:53:56;1.53;;;1.03;;
28772;SDS011;15925;51.222;5.678;2023-08-06T14:56:22;4.17;;;0.80;;
28772;SDS011;15925;51.222;5.678;2023-08-06T14:58:48;6.22;;;1.08;;
28772;SDS011;15925;51.222;5.678;2023-08-06T15:01:14;1.30;;;0.47;;
28772;SDS011;15925;51.222;5.678;2023-08-06T15:03:40;2.13;;;0.43;;
28772;SDS011;15925;51.222;5.678;2023-08-06T15:06:06;4.20;;;0.53;;
28772;SDS011;15925;51.222;5.678;2023-08-06T15:10:58;9.30;;;1.08;;